createdAt,value
2023-05-16T00:00:26.901Z,10.46
2023-05-16T00:03:04.208Z,10.50
2023-05-16T00:05:33.922Z,10.48
2023-05-16T00:08:03.674Z,10.44
2023-05-16T00:10:33.268Z,10.42
2023-05-16T00:13:03.205Z,10.38
2023-05-16T00:15:52.564Z,10.36
2023-05-16T00:18:24.049Z,10.36
2023-05-16T00:20:56.767Z,10.42
2023-05-16T00:23:29.701Z,10.49
2023-05-16T00:25:59.728Z,10.56
2023-05-16T00:28:29.780Z,10.58
2023-05-16T00:31:03.109Z,10.56
2023-05-16T00:33:35.834Z,10.50
2023-05-16T00:36:06.176Z,10.42
2023-05-16T00:38:36.739Z,10.33
2023-05-16T00:41:06.976Z,10.27
2023-05-16T00:43:40.189Z,10.25
2023-05-16T00:46:12.460Z,10.26
2023-05-16T00:48:41.916Z,10.22
2023-05-16T00:51:11.710Z,10.14
2023-05-16T00:53:41.093Z,10.06
2023-05-16T00:56:10.514Z,9.98
2023-05-16T00:58:41.082Z,9.91
2023-05-16T01:01:12.735Z,9.86
2023-05-16T01:03:42.821Z,9.81
2023-05-16T01:06:12.485Z,9.76
2023-05-16T01:08:41.907Z,9.71
2023-05-16T01:11:22.692Z,9.67
2023-05-16T01:14:03.951Z,9.60
2023-05-16T01:16:49.120Z,9.55
2023-05-16T01:19:42.440Z,9.50
2023-05-16T01:22:20.962Z,9.46
2023-05-16T01:25:08.396Z,9.44
2023-05-16T01:27:41.394Z,9.47
2023-05-16T01:30:18.309Z,9.46
2023-05-16T01:32:49.859Z,9.43
2023-05-16T01:35:25.491Z,9.37
2023-05-16T01:38:06.495Z,9.36
2023-05-16T01:40:44.425Z,9.35
2023-05-16T01:43:20.087Z,9.35
2023-05-16T01:46:05.395Z,9.30
2023-05-16T01:48:42.708Z,9.24
2023-05-16T01:51:13.341Z,9.17
2023-05-16T01:53:45.573Z,9.12
2023-05-16T01:56:18.567Z,9.07
2023-05-16T01:58:52.447Z,9.02
2023-05-16T02:01:23.641Z,8.96
2023-05-16T02:03:54.065Z,8.92
2023-05-16T02:06:26.442Z,8.89
2023-05-16T02:08:56.667Z,8.85
2023-05-16T02:11:34.901Z,8.82
2023-05-16T02:14:08.360Z,8.82
2023-05-16T02:16:39.651Z,8.80
2023-05-16T02:19:22.607Z,8.78
2023-05-16T02:21:53.917Z,8.77
2023-05-16T02:24:26.091Z,8.76
2023-05-16T02:26:56.612Z,8.75
2023-05-16T02:29:28.252Z,8.73
2023-05-16T02:31:58.489Z,8.72
2023-05-16T02:34:29.524Z,8.70
2023-05-16T02:36:59.170Z,8.70
2023-05-16T02:39:30.467Z,8.68
2023-05-16T02:41:59.725Z,8.66
2023-05-16T02:44:33.650Z,8.67
2023-05-16T02:47:06.212Z,8.66
2023-05-16T02:49:38.806Z,8.68
2023-05-16T02:52:09.533Z,8.70
2023-05-16T02:54:40.048Z,8.77
2023-05-16T02:57:09.512Z,8.89
2023-05-16T02:59:41.606Z,9.05
2023-05-16T03:02:11.418Z,9.16
2023-05-16T03:04:43.592Z,9.23
2023-05-16T03:07:12.753Z,9.21
2023-05-16T03:09:42.655Z,9.18
2023-05-16T03:12:11.621Z,9.20
2023-05-16T03:14:41.688Z,9.26
2023-05-16T03:17:10.931Z,9.25
2023-05-16T03:19:41.845Z,9.22
2023-05-16T03:22:11.635Z,9.17
2023-05-16T03:24:41.575Z,9.10
2023-05-16T03:27:11.195Z,9.03
2023-05-16T03:29:45.022Z,8.97
2023-05-16T03:32:14.452Z,8.90
2023-05-16T03:34:43.592Z,8.86
2023-05-16T03:37:15.109Z,8.81
2023-05-16T03:39:44.550Z,8.77
2023-05-16T03:42:13.424Z,8.72
2023-05-16T03:44:44.550Z,8.71
2023-05-16T03:47:14.294Z,8.70
2023-05-16T03:49:47.410Z,8.69
2023-05-16T03:52:16.253Z,8.66
2023-05-16T03:54:46.159Z,8.63
2023-05-16T03:57:15.386Z,8.61
2023-05-16T03:59:46.867Z,8.59
2023-05-16T04:02:18.769Z,8.58
2023-05-16T04:04:48.963Z,8.56
2023-05-16T04:07:20.337Z,8.57
2023-05-16T04:09:51.759Z,8.56
2023-05-16T04:12:20.989Z,8.58
2023-05-16T04:14:54.327Z,8.62
2023-05-16T04:17:23.902Z,8.70
2023-05-16T04:19:54.129Z,8.77
2023-05-16T04:22:24.761Z,8.83
2023-05-16T04:24:54.258Z,8.88
2023-05-16T04:27:23.787Z,8.94
2023-05-16T04:29:54.886Z,9.02
2023-05-16T04:32:25.535Z,9.11
2023-05-16T04:34:55.596Z,9.20
2023-05-16T04:37:25.552Z,9.31
2023-05-16T04:39:55.274Z,9.42
2023-05-16T04:42:26.396Z,9.48
2023-05-16T04:44:58.980Z,9.55
2023-05-16T04:47:28.482Z,9.60
2023-05-16T04:49:58.308Z,9.66
2023-05-16T04:52:29.835Z,9.72
2023-05-16T04:55:00.684Z,9.77
2023-05-16T04:57:30.296Z,9.83
2023-05-16T05:00:01.284Z,9.87
2023-05-16T05:02:30.813Z,9.91
2023-05-16T05:05:05.774Z,10.03
2023-05-16T05:07:35.721Z,10.24
2023-05-16T05:10:05.406Z,10.42
2023-05-16T05:12:34.689Z,10.54
2023-05-16T05:15:08.438Z,10.61
2023-05-16T05:17:43.392Z,10.62
2023-05-16T05:20:25.098Z,10.62
2023-05-16T05:22:54.169Z,10.68
2023-05-16T05:25:24.011Z,10.73
2023-05-16T05:28:01.387Z,10.71
2023-05-16T05:30:33.902Z,10.62
2023-05-16T05:33:03.881Z,10.52
2023-05-16T05:35:34.655Z,10.51
2023-05-16T05:38:07.138Z,10.66
2023-05-16T05:40:37.325Z,10.94
2023-05-16T05:43:06.987Z,11.18
2023-05-16T05:45:38.594Z,11.32
2023-05-16T05:48:09.731Z,11.36
2023-05-16T05:50:40.715Z,11.35
2023-05-16T05:53:10.189Z,11.33
2023-05-16T05:55:43.124Z,11.24
2023-05-16T05:58:12.555Z,11.23
2023-05-16T06:00:43.868Z,11.28
2023-05-16T06:03:17.448Z,11.35
2023-05-16T06:05:48.072Z,11.44
2023-05-16T06:08:17.709Z,11.49
2023-05-16T06:10:47.386Z,11.55
2023-05-16T06:13:16.794Z,11.62
2023-05-16T06:15:53.470Z,11.69
2023-05-16T06:18:23.469Z,11.75
2023-05-16T06:20:55.400Z,11.80
2023-05-16T06:23:26.390Z,11.91
2023-05-16T06:25:57.329Z,11.98
2023-05-16T06:28:28.045Z,12.09
2023-05-16T06:30:59.398Z,12.31
2023-05-16T06:33:31.462Z,12.57
2023-05-16T06:36:00.386Z,12.82
2023-05-16T06:38:30.234Z,12.93
2023-05-16T06:41:01.057Z,12.93
2023-05-16T06:43:40.787Z,12.87
2023-05-16T06:46:12.559Z,12.86
2023-05-16T06:48:52.895Z,12.88
2023-05-16T06:51:22.756Z,12.89
2023-05-16T06:53:52.792Z,12.86
2023-05-16T06:56:23.206Z,12.90
2023-05-16T06:58:52.808Z,13.03
2023-05-16T07:01:33.411Z,13.22
2023-05-16T07:04:04.547Z,13.52
2023-05-16T07:06:34.835Z,13.66
2023-05-16T07:09:06.313Z,13.55
2023-05-16T07:11:35.101Z,13.48
2023-05-16T07:14:04.369Z,13.48
2023-05-16T07:16:35.086Z,13.38
2023-05-16T07:19:04.857Z,13.40
2023-05-16T07:21:34.352Z,13.60
2023-05-16T07:24:05.123Z,13.92
2023-05-16T07:26:34.700Z,14.20
2023-05-16T07:29:04.794Z,14.24
2023-05-16T07:31:36.584Z,14.30
2023-05-16T07:34:06.726Z,14.29
2023-05-16T07:36:45.368Z,14.27
2023-05-16T07:39:15.030Z,14.20
2023-05-16T07:41:48.102Z,14.23
2023-05-16T07:44:17.582Z,14.37
2023-05-16T07:46:52.328Z,14.54
2023-05-16T07:49:31.095Z,14.73
2023-05-16T07:52:02.419Z,14.92
2023-05-16T07:54:34.179Z,15.03
2023-05-16T07:57:03.333Z,15.03
2023-05-16T07:59:32.608Z,14.97
2023-05-16T08:02:04.002Z,14.73
2023-05-16T08:04:33.406Z,14.30
2023-05-16T08:07:03.009Z,14.11
2023-05-16T08:09:32.388Z,14.22
2023-05-16T08:12:13.070Z,14.46
2023-05-16T08:14:43.899Z,14.82
2023-05-16T08:17:15.004Z,14.92
2023-05-16T08:19:48.001Z,14.84
2023-05-16T08:22:17.674Z,14.73
2023-05-16T08:24:48.234Z,14.86
2023-05-16T08:27:20.066Z,15.15
2023-05-16T08:29:49.934Z,15.55
2023-05-16T08:32:24.334Z,15.71
2023-05-16T08:34:56.414Z,15.53
2023-05-16T08:37:28.218Z,15.31
2023-05-16T08:39:57.978Z,15.05
2023-05-16T08:42:28.793Z,14.89
2023-05-16T08:45:00.160Z,14.71
2023-05-16T08:47:37.350Z,14.85
2023-05-16T08:50:09.876Z,15.03
2023-05-16T08:52:42.550Z,15.10
2023-05-16T08:55:13.101Z,14.95
2023-05-16T08:57:44.220Z,14.68
2023-05-16T09:00:15.728Z,14.44
2023-05-16T09:02:47.678Z,14.52
2023-05-16T09:05:23.381Z,14.68
2023-05-16T09:08:05.992Z,14.97
2023-05-16T09:10:36.787Z,15.48
2023-05-16T09:13:06.362Z,16.01
2023-05-16T09:15:41.393Z,16.26
2023-05-16T09:18:16.231Z,16.27
2023-05-16T09:20:51.241Z,16.18
2023-05-16T09:23:27.101Z,16.14
2023-05-16T09:25:57.343Z,16.00
2023-05-16T09:28:30.617Z,15.73
2023-05-16T09:31:04.585Z,15.32
2023-05-16T09:33:39.639Z,15.14
2023-05-16T09:36:09.723Z,15.46
2023-05-16T10:22:29.282Z,12.88
2023-05-16T10:25:08.434Z,12.61
2023-05-16T10:27:38.709Z,12.86
2023-05-16T10:30:13.999Z,13.08
2023-05-16T10:32:53.420Z,12.93
2023-05-16T10:35:26.539Z,12.83
2023-05-16T10:38:06.599Z,13.15
2023-05-16T10:40:38.064Z,13.65
2023-05-16T10:43:09.010Z,13.93
2023-05-16T10:46:15.099Z,13.25
2023-05-16T10:48:58.838Z,12.44
2023-05-16T10:51:50.082Z,11.87
2023-05-16T10:54:43.547Z,11.64
2023-05-16T10:57:33.639Z,11.50
2023-05-16T11:00:33.551Z,11.54
2023-05-16T11:03:31.868Z,11.76
2023-05-16T11:06:11.998Z,12.11
2023-05-16T11:09:30.311Z,12.49
2023-05-16T11:12:11.172Z,12.90
2023-05-16T11:14:54.783Z,13.22
2023-05-16T11:17:48.047Z,13.21
2023-05-16T11:20:42.974Z,13.35
2023-05-16T11:23:40.431Z,13.41
2023-05-16T11:26:20.407Z,13.62
2023-05-16T11:29:01.838Z,13.83
2023-05-16T11:31:30.935Z,13.94
2023-05-16T11:34:03.860Z,13.76
2023-05-16T11:36:34.790Z,13.68
2023-05-16T11:39:10.716Z,14.09
2023-05-16T11:41:41.714Z,14.70
2023-05-16T11:44:22.053Z,15.38
2023-05-16T11:46:51.977Z,16.08
2023-05-16T11:49:22.326Z,16.74
2023-05-16T11:51:53.352Z,16.95
2023-05-16T11:54:27.157Z,17.17
2023-05-16T11:57:00.948Z,17.16
2023-05-16T11:59:32.658Z,17.00
2023-05-16T12:02:07.352Z,17.36
2023-05-16T12:04:38.589Z,17.75
2023-05-16T12:07:09.938Z,18.37
2023-05-16T12:09:39.611Z,18.64
2023-05-16T12:12:14.533Z,18.51
2023-05-16T12:14:45.636Z,18.16
2023-05-16T12:17:24.356Z,17.57
2023-05-16T12:19:58.417Z,17.07
2023-05-16T12:22:30.538Z,16.91
2023-05-16T12:25:02.121Z,17.03
2023-05-16T12:27:36.188Z,17.94
2023-05-16T12:30:07.282Z,18.52
2023-05-16T12:32:39.718Z,18.88
2023-05-16T12:35:10.064Z,19.42
2023-05-16T12:37:39.041Z,19.22
2023-05-16T12:40:24.331Z,18.91
2023-05-16T12:43:00.785Z,18.30
2023-05-16T12:45:31.231Z,17.88
2023-05-16T12:48:12.765Z,18.62
2023-05-16T12:50:43.221Z,19.46
2023-05-16T12:53:17.618Z,19.14
2023-05-16T12:55:50.686Z,19.21
2023-05-16T12:58:22.749Z,19.19
2023-05-16T13:00:56.611Z,19.07
2023-05-16T13:03:27.298Z,18.98
2023-05-16T13:05:59.130Z,18.53
2023-05-16T13:08:33.309Z,18.63
2023-05-16T13:11:02.684Z,18.58
2023-05-16T13:13:36.250Z,18.22
2023-05-16T13:16:07.320Z,17.87
2023-05-16T13:18:37.595Z,17.53
2023-05-16T13:21:09.093Z,17.01
2023-05-16T13:23:41.154Z,15.74
2023-05-16T13:26:17.220Z,15.01
2023-05-16T13:28:52.172Z,15.94
2023-05-16T13:31:24.899Z,16.66
2023-05-16T13:33:54.679Z,17.41
2023-05-16T13:36:28.629Z,17.17
2023-05-16T13:38:59.083Z,16.80
2023-05-16T13:41:29.301Z,16.50
2023-05-16T13:44:01.914Z,16.19
2023-05-16T13:46:32.598Z,16.17
2023-05-16T13:49:03.101Z,16.44
2023-05-16T13:51:36.079Z,16.42
2023-05-16T13:54:06.193Z,16.36
2023-05-16T13:56:35.442Z,16.65
2023-05-16T13:59:07.559Z,17.13
2023-05-16T14:01:37.499Z,18.13
2023-05-16T14:04:09.040Z,19.10
2023-05-16T14:06:38.168Z,20.71
2023-05-16T14:09:08.286Z,21.44
2023-05-16T14:11:37.683Z,20.99
2023-05-16T14:14:08.464Z,20.44
2023-05-16T14:16:37.725Z,20.03
2023-05-16T14:19:11.388Z,19.51
2023-05-16T14:21:41.098Z,19.11
2023-05-16T14:24:10.514Z,19.01
2023-05-16T14:26:40.677Z,19.12
2023-05-16T14:29:11.293Z,19.01
2023-05-16T14:31:40.268Z,18.88
2023-05-16T14:34:09.153Z,19.12
2023-05-16T14:36:38.834Z,19.16
2023-05-16T14:39:11.426Z,18.93
2023-05-16T14:41:40.500Z,18.72
2023-05-16T14:44:11.348Z,18.74
2023-05-16T14:46:45.945Z,18.50
2023-05-16T14:49:15.411Z,17.62
2023-05-16T14:51:49.579Z,16.79
2023-05-16T14:54:19.614Z,15.94
2023-05-16T14:56:52.268Z,14.73
2023-05-16T14:59:29.171Z,13.85
2023-05-16T15:02:00.216Z,13.42
2023-05-16T15:04:39.156Z,13.35
2023-05-16T15:07:08.730Z,13.61
2023-05-16T15:09:38.916Z,14.21
2023-05-16T15:12:12.322Z,14.82
2023-05-16T15:14:44.295Z,15.39
2023-05-16T15:17:14.562Z,15.97
2023-05-16T15:19:44.565Z,16.47
2023-05-16T15:22:13.685Z,17.65
2023-05-16T15:24:44.001Z,18.18
2023-05-16T15:27:14.369Z,17.81
2023-05-16T15:29:45.513Z,17.58
2023-05-16T15:32:15.214Z,18.90
2023-05-16T15:34:44.766Z,20.66
2023-05-16T15:37:14.560Z,21.00
2023-05-16T15:39:44.549Z,21.07
2023-05-16T15:42:16.716Z,20.69
2023-05-16T15:44:47.371Z,20.97
2023-05-16T15:47:16.896Z,21.80
2023-05-16T15:49:46.375Z,22.35
2023-05-16T15:52:16.404Z,22.24
2023-05-16T15:54:45.879Z,21.32
2023-05-16T15:57:16.850Z,20.08
2023-05-16T15:59:47.888Z,18.89
2023-05-16T16:02:18.801Z,18.08
2023-05-16T16:04:49.288Z,17.39
2023-05-16T16:07:20.526Z,16.91
2023-05-16T16:09:49.901Z,16.53
2023-05-16T16:12:20.089Z,16.24
2023-05-16T16:14:53.075Z,16.09
2023-05-16T16:17:22.739Z,16.02
2023-05-16T16:19:52.318Z,15.86
2023-05-16T16:22:22.764Z,15.66
2023-05-16T16:24:53.174Z,15.57
2023-05-16T16:27:24.037Z,15.63
2023-05-16T16:29:55.759Z,15.63
2023-05-16T16:32:26.018Z,15.63
2023-05-16T16:34:56.618Z,15.61
2023-05-16T16:37:26.972Z,15.66
2023-05-16T16:39:56.763Z,15.73
2023-05-16T16:42:28.098Z,15.74
2023-05-16T16:47:42.407Z,15.53
2023-05-16T16:50:15.889Z,15.38
2023-05-16T16:52:47.142Z,15.26
2023-05-16T16:55:17.158Z,15.21
2023-05-16T16:57:46.284Z,15.21
2023-05-16T17:00:25.160Z,15.23
2023-05-16T17:02:56.844Z,15.21
2023-05-16T17:05:29.184Z,15.25
2023-05-16T17:08:02.279Z,15.39
2023-05-16T17:10:31.948Z,16.21
2023-05-16T17:13:12.294Z,16.56
2023-05-16T17:15:44.336Z,16.74
2023-05-16T17:18:13.651Z,16.73
2023-05-16T17:20:42.617Z,16.67
2023-05-16T17:23:11.967Z,16.54
2023-05-16T17:25:41.347Z,16.39
2023-05-16T17:28:14.443Z,16.15
2023-05-16T17:30:45.633Z,15.91
2023-05-16T17:33:17.214Z,15.75
2023-05-16T17:35:47.749Z,15.88
2023-05-16T17:38:17.279Z,16.12
2023-05-16T17:40:47.546Z,17.05
2023-05-16T17:43:17.524Z,17.98
2023-05-16T17:45:49.999Z,18.55
2023-05-16T17:48:23.672Z,18.10
2023-05-16T17:50:53.645Z,17.46
2023-05-16T17:53:23.956Z,16.87
2023-05-16T17:55:57.140Z,16.34
2023-05-16T17:58:27.596Z,15.97
2023-05-16T18:00:58.656Z,15.65
2023-05-16T18:03:29.256Z,15.44
2023-05-16T18:06:02.235Z,15.32
2023-05-16T18:08:32.173Z,15.16
2023-05-16T18:11:01.479Z,15.02
2023-05-16T18:13:31.437Z,14.93
2023-05-16T18:16:02.399Z,14.79
2023-05-16T18:18:32.283Z,14.66
2023-05-16T18:21:07.757Z,14.58
2023-05-16T18:23:38.545Z,14.48
2023-05-16T18:26:08.778Z,14.42
2023-05-16T18:28:39.522Z,14.35
2023-05-16T18:31:11.230Z,14.29
2023-05-16T18:33:40.608Z,14.19
2023-05-16T18:36:10.903Z,14.12
2023-05-16T18:38:41.351Z,14.06
2023-05-16T18:41:13.665Z,14.01
2023-05-16T18:43:43.269Z,13.96
2023-05-16T18:46:18.112Z,13.90
2023-05-16T18:48:47.530Z,13.87
2023-05-16T18:51:17.150Z,13.84
2023-05-16T18:53:46.469Z,13.81
2023-05-16T18:56:17.370Z,13.79
2023-05-16T18:58:47.230Z,13.76
2023-05-16T19:01:23.591Z,13.74
2023-05-16T19:03:54.159Z,13.69
2023-05-16T19:06:27.103Z,13.66
2023-05-16T19:08:57.461Z,13.62
2023-05-16T19:11:28.617Z,13.55
2023-05-16T19:14:00.133Z,13.53
2023-05-16T19:16:31.593Z,13.54
2023-05-16T19:19:01.589Z,13.50
2023-05-16T19:21:33.066Z,13.44
2023-05-16T19:24:03.822Z,13.42
2023-05-16T19:26:34.877Z,13.37
2023-05-16T19:29:05.077Z,13.35
2023-05-16T19:31:36.331Z,13.31
2023-05-16T19:34:07.695Z,13.29
2023-05-16T19:36:40.582Z,13.23
2023-05-16T19:39:09.561Z,13.09
2023-05-16T19:41:39.339Z,12.94
2023-05-16T19:44:10.210Z,12.82
2023-05-16T19:46:50.441Z,12.71
2023-05-16T19:49:20.901Z,12.70
2023-05-16T19:51:50.494Z,12.73
2023-05-16T19:54:21.612Z,12.73
2023-05-16T19:56:57.256Z,12.71
2023-05-16T19:59:27.181Z,12.71
2023-05-16T20:01:59.382Z,12.70
2023-05-16T20:04:31.272Z,12.61
2023-05-16T20:07:00.694Z,12.49
2023-05-16T20:09:30.847Z,12.40
2023-05-16T20:12:00.229Z,12.31
2023-05-16T20:14:32.218Z,12.25
2023-05-16T20:17:03.335Z,12.16
2023-05-16T20:19:33.309Z,12.09
2023-05-16T20:22:03.145Z,12.02
2023-05-16T20:27:17.568Z,11.89
2023-05-16T20:29:51.512Z,11.85
2023-05-16T20:32:25.356Z,11.85
2023-05-16T20:34:54.564Z,11.91
2023-05-16T20:37:32.000Z,12.01
2023-05-16T20:40:09.856Z,12.13
2023-05-16T20:42:39.706Z,12.23
2023-05-16T20:45:11.950Z,12.29
2023-05-16T20:47:51.417Z,12.33
2023-05-16T20:50:22.851Z,12.37
2023-05-16T20:52:52.193Z,12.38
2023-05-16T20:55:28.277Z,12.39
2023-05-16T20:58:00.719Z,12.42
2023-05-16T21:00:32.139Z,12.45
2023-05-16T21:03:06.418Z,12.46
2023-05-16T21:05:40.135Z,12.33
2023-05-16T21:08:11.580Z,12.14
2023-05-16T21:10:43.693Z,12.01
2023-05-16T21:13:13.381Z,11.97
2023-05-16T21:15:51.883Z,11.96
2023-05-16T21:18:25.916Z,11.95
2023-05-16T21:20:59.250Z,11.94
2023-05-16T21:23:30.620Z,11.94
2023-05-16T21:26:00.825Z,11.98
2023-05-16T21:28:34.824Z,12.03
2023-05-16T21:31:09.986Z,12.09
2023-05-16T21:33:40.930Z,12.16
2023-05-16T21:36:13.859Z,12.20
2023-05-16T21:38:43.477Z,12.24
2023-05-16T21:41:13.314Z,12.27
2023-05-16T21:43:42.206Z,12.31
2023-05-16T21:46:14.570Z,12.35
2023-05-16T21:48:48.922Z,12.37
2023-05-16T21:51:18.208Z,12.39
2023-05-16T21:53:47.357Z,12.41
2023-05-16T21:56:17.984Z,12.41
2023-05-16T21:58:51.736Z,12.42
2023-05-16T22:01:29.016Z,12.43
2023-05-16T22:04:00.889Z,12.40
2023-05-16T22:06:31.187Z,12.29
2023-05-16T22:09:01.862Z,12.18
2023-05-16T22:11:32.148Z,12.10
2023-05-16T22:14:08.738Z,12.10
2023-05-16T22:16:41.075Z,12.10
2023-05-16T22:19:13.121Z,12.15
2023-05-16T22:21:43.365Z,12.18
2023-05-16T22:24:16.248Z,12.22
2023-05-16T22:26:46.567Z,12.22
2023-05-16T22:29:16.909Z,12.22
2023-05-16T22:32:00.177Z,12.26
2023-05-16T22:34:34.229Z,12.29
2023-05-16T22:37:03.276Z,12.30
2023-05-16T22:39:35.703Z,12.28
2023-05-16T22:42:06.941Z,12.26
2023-05-16T22:44:39.365Z,12.26
2023-05-16T22:47:13.260Z,12.26
2023-05-16T22:49:45.027Z,12.27
2023-05-16T22:52:14.293Z,12.28
2023-05-16T22:54:43.340Z,12.27
2023-05-16T22:57:13.173Z,12.28
2023-05-16T22:59:42.090Z,12.32
2023-05-16T23:02:11.943Z,12.33
2023-05-16T23:04:42.565Z,12.30
2023-05-16T23:07:15.520Z,12.23
2023-05-16T23:09:45.419Z,12.17
2023-05-16T23:12:15.280Z,12.09
2023-05-16T23:14:45.206Z,12.06
2023-05-16T23:17:15.734Z,12.03
2023-05-16T23:19:47.513Z,12.02
2023-05-16T23:22:17.376Z,11.97
2023-05-16T23:24:47.837Z,11.84
2023-05-16T23:27:18.201Z,11.66
2023-05-16T23:29:50.152Z,11.47
2023-05-16T23:32:20.187Z,11.31
2023-05-16T23:34:52.971Z,11.17
2023-05-16T23:37:22.899Z,11.05
2023-05-16T23:39:52.818Z,10.93
2023-05-16T23:42:22.341Z,10.82
2023-05-16T23:44:51.726Z,10.74
2023-05-16T23:47:23.806Z,10.65
2023-05-16T23:49:54.864Z,10.55
2023-05-16T23:52:27.509Z,10.47
2023-05-16T23:55:00.290Z,10.39
2023-05-16T23:57:29.696Z,10.32
